Time;durP1;ratioP1;P1;durP2;ratioP2;P2;SDS_P1;SDS_P2;PMS_P1;PMS_P2;Temp;Humidity;BMP_temperature;BMP_pressure;BME280_temperature;BME280_humidity;BME280_pressure;Samples;Min_cycle;Max_cycle;Signal;HPM_P1;HPM_P2
2022/01/03 00:01:48;;;;;;;2.78;0.90;;;18.60;85.30;;;;;;5033734;28;45220;-82
2022/01/03 00:04:34;;;;;;;1.08;0.50;;;18.50;84.90;;;;;;5033669;28;47057;-82
2022/01/03 00:07:03;;;;;;;3.28;0.80;;;18.60;85.90;;;;;;5038863;28;44999;-82
2022/01/03 00:09:31;;;;;;;2.40;0.90;;;19.30;85.10;;;;;;5038247;28;45310;-83
2022/01/03 00:11:59;;;;;;;2.05;0.65;;;18.70;87.30;;;;;;5028433;28;45352;-83
2022/01/03 00:14:31;;;;;;;2.00;0.68;;;18.50;89.00;;;;;;5031390;28;45558;-82
2022/01/03 00:16:58;;;;;;;2.10;0.68;;;19.60;89.50;;;;;;5035850;28;45350;-82
2022/01/03 00:19:26;;;;;;;2.55;0.70;;;18.60;86.60;;;;;;5031593;28;44824;-82
2022/01/03 00:24:41;;;;;;;2.80;0.93;;;20.00;88.40;;;;;;5036602;28;45395;-82
2022/01/03 00:27:14;;;;;;;3.60;0.75;;;18.60;86.50;;;;;;5051995;28;45284;-82
2022/01/03 00:29:44;;;;;;;2.40;0.88;;;18.60;85.40;;;;;;5032002;28;45270;-82
2022/01/03 00:32:13;;;;;;;1.95;0.73;;;18.60;88.30;;;;;;5019657;28;45552;-81
2022/01/03 00:34:40;;;;;;;1.60;0.80;;;18.60;86.50;;;;;;5044448;28;46505;-82
2022/01/03 00:37:16;;;;;;;3.35;0.90;;;18.60;87.70;;;;;;5039560;28;45185;-82
2022/01/03 00:39:44;;;;;;;2.05;0.60;;;18.60;85.00;;;;;;5044155;28;45481;-82
2022/01/03 00:42:14;;;;;;;1.75;0.73;;;18.80;85.70;;;;;;5042559;28;45220;-82
2022/01/03 00:44:45;;;;;;;1.85;0.82;;;18.60;83.40;;;;;;5058439;28;46499;-81
2022/01/03 00:47:15;;;;;;;2.22;0.68;;;18.60;83.20;;;;;;5055058;28;45388;-82
2022/01/03 00:49:43;;;;;;;2.88;0.80;;;18.60;82.60;;;;;;5047572;28;45284;-82
2022/01/03 00:52:15;;;;;;;1.55;0.70;;;18.60;83.30;;;;;;5025645;28;45355;-82
2022/01/03 00:54:45;;;;;;;2.17;0.65;;;18.60;82.90;;;;;;5037881;28;48382;-81
2022/01/03 00:57:21;;;;;;;2.38;0.60;;;18.60;83.10;;;;;;5037742;28;45429;-82
2022/01/03 00:59:57;;;;;;;2.00;0.80;;;18.60;82.40;;;;;;5035660;28;44692;-82
2022/01/03 01:02:29;;;;;;;1.15;0.50;;;18.60;83.70;;;;;;5037529;28;45830;-82
2022/01/03 01:04:57;;;;;;;3.10;0.95;;;19.00;83.80;;;;;;5039130;28;45242;-82
2022/01/03 01:07:29;;;;;;;2.63;0.70;;;18.60;84.50;;;;;;5044811;28;45230;-82
2022/01/03 01:10:00;;;;;;;2.08;0.73;;;18.20;83.50;;;;;;5038338;28;45239;-82
2022/01/03 01:12:28;;;;;;;1.27;0.50;;;18.70;84.00;;;;;;5043583;28;45502;-82
2022/01/03 01:14:56;;;;;;;2.30;0.70;;;18.60;84.20;;;;;;5054345;28;47626;-83
2022/01/03 01:17:26;;;;;;;1.58;0.47;;;18.70;84.80;;;;;;5058606;28;45258;-82
2022/01/03 01:19:55;;;;;;;1.45;0.60;;;18.60;85.20;;;;;;5047661;28;45213;-82
2022/01/03 01:22:23;;;;;;;2.38;0.85;;;19.20;86.30;;;;;;5054022;28;45488;-81
2022/01/03 01:25:21;;;;;;;4.03;0.70;;;18.70;84.50;;;;;;5037628;28;47821;-82
2022/01/03 01:27:48;;;;;;;1.83;0.73;;;18.70;85.00;;;;;;5035853;28;45224;-81
2022/01/03 01:30:19;;;;;;;1.90;0.80;;;18.70;82.10;;;;;;5037191;28;45202;-82
2022/01/03 01:32:51;;;;;;;4.20;0.68;;;18.90;81.80;;;;;;5020819;28;45344;-82
2022/01/03 01:35:20;;;;;;;2.40;0.70;;;18.60;81.80;;;;;;5037453;28;47996;-82
2022/01/03 01:37:53;;;;;;;1.80;0.65;;;18.70;83.50;;;;;;5022061;28;45558;-82
2022/01/03 01:40:25;;;;;;;3.08;0.80;;;18.70;82.10;;;;;;5042476;28;45241;-81
2022/01/03 01:42:56;;;;;;;2.75;1.10;;;19.10;83.40;;;;;;5059407;28;45249;-82
2022/01/03 01:45:30;;;;;;;2.42;0.98;;;18.80;81.20;;;;;;5045886;28;46862;-83
2022/01/03 01:48:06;;;;;;;3.33;1.00;;;18.80;85.20;;;;;;5026176;28;45288;-83
2022/01/03 01:50:42;;;;;;;2.35;0.75;;;16.60;78.50;;;;;;5031501;28;45218;-83
2022/01/03 01:53:10;;;;;;;4.30;0.88;;;19.00;80.50;;;;;;5046642;28;44894;-83
2022/01/03 01:55:48;;;;;;;1.88;0.70;;;18.70;84.30;;;;;;5030842;28;45431;-83
2022/01/03 01:58:29;;;;;;;1.38;0.77;;;20.60;86.60;;;;;;5038304;28;44847;-83
2022/01/03 02:01:00;;;;;;;4.95;1.27;;;19.10;82.40;;;;;;5052349;28;45132;-82
2022/01/03 02:03:56;;;;;;;2.13;0.60;;;19.90;86.80;;;;;;5043643;28;45292;-82
2022/01/03 02:06:41;;;;;;;2.13;0.70;;;18.60;82.70;;;;;;5022951;28;45438;-81
2022/01/03 02:09:10;;;;;;;4.85;1.00;;;18.60;82.50;;;;;;5038778;28;45264;-83
2022/01/03 02:11:51;;;;;;;1.42;0.70;;;18.60;83.00;;;;;;5038132;28;45275;-82
2022/01/03 02:14:20;;;;;;;1.90;0.75;;;18.60;84.00;;;;;;5046346;28;45360;-81
2022/01/03 02:16:54;;;;;;;2.20;0.70;;;18.60;84.00;;;;;;5035723;28;45907;-81
2022/01/03 02:19:22;;;;;;;2.58;0.80;;;18.60;84.20;;;;;;5039220;28;45232;-81
2022/01/03 02:21:51;;;;;;;2.67;0.77;;;18.60;83.30;;;;;;5020497;28;45285;-80
2022/01/03 02:24:18;;;;;;;2.80;0.90;;;18.60;83.40;;;;;;5035945;28;45277;-80
2022/01/03 02:26:48;;;;;;;2.45;0.60;;;18.70;82.40;;;;;;5029335;28;46406;-80
2022/01/03 02:29:15;;;;;;;2.45;0.90;;;18.50;81.80;;;;;;5021829;28;45171;-80
2022/01/03 02:31:43;;;;;;;1.67;0.80;;;18.50;81.70;;;;;;5044873;28;45295;-80
2022/01/03 02:34:10;;;;;;;3.15;0.90;;;18.50;81.70;;;;;;5037377;28;45484;-80
2022/01/03 02:36:38;;;;;;;2.38;0.73;;;18.50;81.20;;;;;;5030810;28;47042;-80
2022/01/03 02:39:07;;;;;;;2.78;1.08;;;18.50;81.80;;;;;;5037557;28;45229;-80
2022/01/03 02:41:34;;;;;;;2.10;0.57;;;18.50;81.80;;;;;;5019236;28;45174;-80
2022/01/03 02:44:01;;;;;;;1.58;0.63;;;18.50;82.40;;;;;;5028406;28;45307;-80
2022/01/03 02:46:28;;;;;;;1.77;0.57;;;18.50;80.20;;;;;;5031072;28;47906;-81
2022/01/03 02:48:55;;;;;;;2.40;0.82;;;18.50;81.10;;;;;;5036111;28;46260;-80
2022/01/03 02:51:23;;;;;;;2.05;0.90;;;18.50;82.10;;;;;;5030972;28;45348;-81
2022/01/03 02:53:52;;;;;;;1.17;0.50;;;18.60;82.40;;;;;;5032094;28;45476;-81
2022/01/03 02:56:21;;;;;;;3.00;0.70;;;18.60;82.60;;;;;;5030517;28;45460;-81
2022/01/03 02:58:59;;;;;;;1.73;0.73;;;18.60;82.20;;;;;;5038558;28;45150;-81
2022/01/03 03:01:29;;;;;;;3.40;0.80;;;18.60;82.10;;;;;;5047355;28;45205;-80
2022/01/03 03:03:58;;;;;;;1.88;0.63;;;18.60;81.70;;;;;;5033960;28;45426;-80
2022/01/03 03:06:29;;;;;;;1.30;0.70;;;18.50;81.40;;;;;;5032082;28;47125;-80
2022/01/03 03:08:56;;;;;;;1.42;0.50;;;18.60;81.80;;;;;;5047330;28;45927;-80
2022/01/03 03:11:25;;;;;;;1.83;0.70;;;18.60;81.70;;;;;;5038808;28;45145;-80
2022/01/03 03:13:54;;;;;;;1.88;0.63;;;18.60;81.10;;;;;;5029920;28;45174;-80
2022/01/03 03:16:21;;;;;;;2.25;0.93;;;18.60;81.20;;;;;;5030437;28;45348;-81
2022/01/03 03:18:48;;;;;;;2.42;0.60;;;18.60;79.30;;;;;;5034510;28;45195;-81
2022/01/03 03:21:15;;;;;;;1.27;0.60;;;18.60;79.70;;;;;;5030504;28;45166;-81
2022/01/03 03:23:44;;;;;;;2.17;0.95;;;18.60;80.10;;;;;;5029962;28;45189;-80
2022/01/03 03:26:12;;;;;;;3.58;0.93;;;18.60;79.60;;;;;;5029757;28;46645;-81
2022/01/03 03:28:41;;;;;;;2.17;0.55;;;18.60;79.60;;;;;;5045474;28;45850;-81
2022/01/03 03:31:10;;;;;;;2.60;0.80;;;18.60;79.60;;;;;;5013259;28;45294;-81
2022/01/03 03:33:38;;;;;;;3.08;0.90;;;18.60;78.90;;;;;;5048975;28;45324;-81
2022/01/03 03:36:06;;;;;;;1.23;0.45;;;18.60;78.30;;;;;;5035349;28;46420;-81
2022/01/03 03:38:34;;;;;;;2.28;0.80;;;18.50;79.00;;;;;;5010184;28;45153;-81
2022/01/03 03:41:03;;;;;;;2.78;0.73;;;18.60;78.70;;;;;;5032080;28;45332;-81
2022/01/03 03:43:32;;;;;;;3.80;0.82;;;18.60;80.30;;;;;;5037052;28;45182;-81
2022/01/03 03:46:01;;;;;;;2.03;0.40;;;18.60;78.30;;;;;;5033420;28;45323;-82
2022/01/03 03:48:28;;;;;;;2.47;0.80;;;18.60;79.10;;;;;;5032297;28;45381;-81
2022/01/03 03:50:56;;;;;;;2.95;0.75;;;19.10;80.50;;;;;;5033464;28;45230;-82
2022/01/03 03:53:26;;;;;;;3.50;1.05;;;18.70;80.90;;;;;;5033371;28;45564;-81
2022/01/03 03:55:53;;;;;;;2.63;0.75;;;18.60;81.10;;;;;;5033209;28;47042;-81
2022/01/03 03:58:21;;;;;;;5.10;1.10;;;18.60;81.20;;;;;;5035733;28;46557;-81
2022/01/03 04:00:47;;;;;;;1.98;0.60;;;18.60;80.80;;;;;;5045433;28;45122;-81
2022/01/03 04:03:17;;;;;;;2.50;0.60;;;18.60;80.60;;;;;;5039471;28;45249;-81
2022/01/03 04:05:45;;;;;;;2.13;0.70;;;18.60;79.70;;;;;;5053062;28;47341;-82
2022/01/03 04:08:13;;;;;;;1.27;0.80;;;18.60;78.50;;;;;;5043646;28;45196;-81
2022/01/03 04:10:40;;;;;;;1.75;0.60;;;18.60;78.40;;;;;;5032475;28;45237;-81
2022/01/03 04:13:08;;;;;;;1.77;0.65;;;18.60;77.00;;;;;;5036657;28;45321;-81
2022/01/03 04:15:35;;;;;;;1.20;0.50;;;18.60;77.10;;;;;;5042930;28;46717;-81
2022/01/03 04:18:04;;;;;;;1.95;0.55;;;18.60;77.00;;;;;;5032252;28;45378;-81
2022/01/03 04:20:33;;;;;;;1.33;0.60;;;18.60;77.70;;;;;;5015413;28;45270;-81
2022/01/03 04:23:01;;;;;;;3.25;1.00;;;18.60;77.00;;;;;;5044124;28;45383;-81
2022/01/03 04:25:29;;;;;;;1.90;0.90;;;18.60;77.00;;;;;;5029452;28;46574;-82
2022/01/03 04:27:58;;;;;;;1.35;0.60;;;18.60;77.00;;;;;;5031371;28;45712;-80
2022/01/03 04:30:28;;;;;;;2.53;0.82;;;18.60;77.10;;;;;;5036024;28;45245;-81
2022/01/03 04:33:00;;;;;;;1.40;0.70;;;18.60;76.70;;;;;;5036763;28;45162;-81
2022/01/03 04:35:27;;;;;;;2.33;0.90;;;18.60;77.90;;;;;;5037094;28;48195;-81
2022/01/03 04:37:56;;;;;;;1.55;0.68;;;18.60;78.00;;;;;;5029762;28;45280;-81
2022/01/03 04:40:25;;;;;;;2.35;0.77;;;18.60;78.00;;;;;;5025205;28;45570;-80
2022/01/03 04:42:52;;;;;;;2.13;0.80;;;18.60;78.90;;;;;;5020001;28;45523;-80
2022/01/03 04:45:19;;;;;;;2.17;0.57;;;18.60;78.30;;;;;;5031826;28;47483;-80
2022/01/03 04:47:46;;;;;;;3.83;0.95;;;18.60;79.60;;;;;;5031622;28;45351;-80
2022/01/03 04:50:14;;;;;;;2.15;0.88;;;18.60;79.90;;;;;;5032220;28;45361;-80
2022/01/03 04:52:42;;;;;;;4.13;0.85;;;18.60;80.10;;;;;;5017977;28;45572;-80
2022/01/03 04:55:12;;;;;;;3.63;0.68;;;18.70;80.10;;;;;;5030425;28;48614;-80
2022/01/03 04:57:43;;;;;;;2.83;0.73;;;18.70;78.70;;;;;;5027225;28;45282;-80
2022/01/03 05:00:16;;;;;;;2.13;0.73;;;18.60;78.20;;;;;;5014760;28;45278;-80
2022/01/03 05:02:45;;;;;;;1.95;0.75;;;18.60;76.00;;;;;;5032166;28;45162;-80
2022/01/03 05:05:15;;;;;;;2.75;0.80;;;18.60;75.80;;;;;;5030731;28;46302;-80
2022/01/03 05:07:43;;;;;;;2.13;1.00;;;18.60;75.90;;;;;;5026274;28;45630;-80
2022/01/03 05:10:14;;;;;;;4.53;1.13;;;18.60;75.70;;;;;;5035939;28;45427;-81
2022/01/03 05:12:43;;;;;;;2.55;0.90;;;18.60;75.40;;;;;;5020854;28;45227;-80
2022/01/03 05:17:48;;;;;;;3.38;0.80;;;18.60;77.10;;;;;;5149379;22;45294;-79
2022/01/03 05:20:16;;;;;;;2.35;0.88;;;18.60;76.10;;;;;;5003558;28;45387;-79
2022/01/03 05:22:43;;;;;;;3.88;0.90;;;18.60;75.80;;;;;;5018889;28;45313;-79
2022/01/03 05:25:12;;;;;;;2.55;0.80;;;18.60;76.60;;;;;;5006021;28;46460;-80
2022/01/03 05:27:42;;;;;;;2.65;0.73;;;18.60;78.10;;;;;;5009720;28;45392;-80
2022/01/03 05:30:11;;;;;;;2.05;0.73;;;18.60;77.00;;;;;;5010161;28;45353;-80
2022/01/03 05:32:40;;;;;;;1.27;0.63;;;18.60;77.70;;;;;;5010600;28;45529;-78
2022/01/03 05:35:08;;;;;;;1.15;0.45;;;18.60;78.40;;;;;;5013403;28;48182;-78
2022/01/03 05:37:37;;;;;;;4.43;1.13;;;18.70;78.80;;;;;;5013224;28;45190;-79
2022/01/03 05:40:06;;;;;;;2.33;0.65;;;18.60;77.40;;;;;;5010036;28;45211;-79
2022/01/03 05:42:37;;;;;;;2.53;0.70;;;18.60;77.70;;;;;;4993551;28;45403;-79
2022/01/03 05:45:06;;;;;;;3.55;1.00;;;18.70;78.00;;;;;;5010903;28;45251;-79
2022/01/03 05:47:35;;;;;;;2.47;0.75;;;18.60;79.60;;;;;;5009727;28;45613;-79
2022/01/03 05:50:05;;;;;;;3.40;0.98;;;18.60;77.30;;;;;;5010609;28;46789;-80
2022/01/03 05:52:34;;;;;;;3.38;1.08;;;18.60;76.00;;;;;;5010262;28;45227;-80
2022/01/03 05:55:02;;;;;;;2.17;1.00;;;18.60;73.60;;;;;;5011122;28;48145;-80
2022/01/03 05:57:30;;;;;;;4.35;1.00;;;18.60;74.00;;;;;;5011203;28;45268;-81
2022/01/03 06:00:03;;;;;;;5.90;1.27;;;18.60;74.70;;;;;;5016274;28;45352;-81
2022/01/03 06:02:35;;;;;;;3.17;0.77;;;18.60;74.60;;;;;;5014115;28;45295;-81
2022/01/03 06:05:05;;;;;;;4.22;1.20;;;18.60;76.00;;;;;;5013332;28;47114;-80
2022/01/03 06:07:32;;;;;;;2.20;0.93;;;18.50;74.90;;;;;;5009858;28;45268;-80
2022/01/03 06:10:08;;;;;;;2.65;0.80;;;18.50;75.20;;;;;;5007989;28;45214;-79
2022/01/03 06:12:36;;;;;;;2.92;0.70;;;18.50;74.60;;;;;;5007787;28;45376;-79
2022/01/03 06:15:05;;;;;;;1.20;0.50;;;18.60;74.30;;;;;;5018892;28;45281;-79
2022/01/03 06:17:42;;;;;;;2.38;0.50;;;18.50;74.50;;;;;;5020926;28;45320;-80
2022/01/03 06:20:11;;;;;;;2.75;0.80;;;18.50;77.40;;;;;;5022961;28;45235;-81
2022/01/03 06:22:40;;;;;;;1.45;0.77;;;18.50;78.00;;;;;;5009063;28;45386;-80
2022/01/03 06:25:09;;;;;;;1.60;0.90;;;18.50;78.00;;;;;;5006098;28;47646;-79
2022/01/03 06:27:39;;;;;;;1.55;0.80;;;18.50;79.40;;;;;;5002565;28;45328;-80
2022/01/03 06:30:12;;;;;;;2.08;1.05;;;18.50;79.10;;;;;;5012460;28;45325;-82
2022/01/03 06:32:40;;;;;;;2.75;0.70;;;18.60;79.10;;;;;;5005117;28;46747;-81
2022/01/03 06:35:08;;;;;;;1.42;0.73;;;18.50;79.70;;;;;;5015695;28;48004;-81
2022/01/03 06:37:37;;;;;;;6.13;0.98;;;18.50;80.80;;;;;;5012223;28;45285;-81
2022/01/03 06:40:08;;;;;;;4.32;1.20;;;18.60;80.50;;;;;;5014310;28;45361;-82
2022/01/03 06:42:39;;;;;;;2.15;0.70;;;18.50;80.10;;;;;;5018075;28;45186;-83
2022/01/03 06:45:10;;;;;;;3.13;0.85;;;19.80;81.50;;;;;;5019004;28;48183;-82
2022/01/03 06:47:37;;;;;;;3.05;0.85;;;18.70;80.80;;;;;;5014628;28;45490;-79
2022/01/03 06:50:15;;;;;;;2.67;0.88;;;18.50;79.80;;;;;;5015096;28;45372;-85
2022/01/03 06:52:43;;;;;;;2.67;1.00;;;17.60;77.90;;;;;;5015674;28;45766;-82
2022/01/03 06:55:10;;;;;;;2.45;0.80;;;18.60;79.20;;;;;;5013428;28;46825;-82
2022/01/03 06:57:40;;;;;;;3.95;1.00;;;18.60;80.80;;;;;;5020199;28;45193;-81
2022/01/03 07:00:13;;;;;;;2.22;0.90;;;18.60;78.70;;;;;;5010237;28;45241;-80
2022/01/03 07:02:42;;;;;;;2.28;0.55;;;18.60;78.60;;;;;;5011127;28;45315;-80
2022/01/03 07:05:11;;;;;;;2.88;0.98;;;18.60;77.50;;;;;;5000504;28;47025;-80
2022/01/03 07:07:39;;;;;;;3.30;0.63;;;18.60;77.80;;;;;;5002728;28;45323;-79
2022/01/03 07:10:09;;;;;;;2.40;1.02;;;18.60;78.60;;;;;;4993715;28;45225;-81
2022/01/03 07:12:38;;;;;;;3.17;0.95;;;18.60;79.10;;;;;;5012100;28;45201;-81
2022/01/03 07:20:39;;;;;;;5.40;0.82;;;18.70;78.70;;;;;;5007895;28;45314;-81
2022/01/03 07:23:07;;;;;;;2.63;0.60;;;18.60;78.70;;;;;;4995752;28;45248;-80
2022/01/03 07:25:35;;;;;;;2.17;0.70;;;18.70;79.00;;;;;;5011908;28;47749;-81
2022/01/03 07:28:04;;;;;;;2.72;0.88;;;18.70;79.00;;;;;;5012783;28;45592;-81
2022/01/03 07:30:37;;;;;;;2.80;0.60;;;18.70;79.00;;;;;;5013541;28;44780;-81
2022/01/03 07:33:06;;;;;;;3.17;1.23;;;18.70;78.60;;;;;;5014610;28;45246;-81
2022/01/03 07:35:37;;;;;;;1.85;0.60;;;18.70;77.90;;;;;;5000468;28;46336;-82
2022/01/03 07:38:10;;;;;;;3.88;0.90;;;18.70;78.00;;;;;;5031689;28;45213;-82
2022/01/03 07:40:41;;;;;;;2.78;0.93;;;18.70;77.70;;;;;;5014614;28;45230;-81
2022/01/03 07:43:10;;;;;;;1.85;0.68;;;18.60;78.00;;;;;;5006362;28;45453;-81
2022/01/03 07:45:40;;;;;;;1.52;0.82;;;18.60;79.10;;;;;;5008247;28;47290;-81
2022/01/03 07:48:13;;;;;;;2.25;0.70;;;18.60;78.40;;;;;;4985594;28;45544;-82
2022/01/03 07:50:59;;;;;;;2.88;0.80;;;18.60;79.40;;;;;;5014380;28;44826;-83
2022/01/03 07:53:27;;;;;;;3.30;0.80;;;18.60;79.30;;;;;;5016114;28;45282;-82
2022/01/03 07:55:57;;;;;;;1.98;0.70;;;18.90;79.20;;;;;;5021793;28;47659;-84
2022/01/03 07:58:32;;;;;;;3.00;0.90;;;18.60;79.90;;;;;;5018077;28;45099;-82
2022/01/03 08:01:05;;;;;;;1.85;0.88;;;18.50;80.10;;;;;;5018680;28;45163;-81
2022/01/03 08:03:35;;;;;;;3.33;1.00;;;18.60;79.60;;;;;;5013299;28;45345;-81
2022/01/03 08:06:05;;;;;;;3.42;0.90;;;18.60;79.50;;;;;;5010159;28;48206;-81
2022/01/03 08:08:38;;;;;;;2.05;0.90;;;18.60;79.70;;;;;;5009366;28;45242;-80
2022/01/03 08:11:10;;;;;;;1.52;0.68;;;18.60;79.20;;;;;;4984750;28;45522;-80
2022/01/03 08:13:38;;;;;;;3.50;1.00;;;18.60;79.70;;;;;;4997955;28;45267;-80
2022/01/03 08:16:12;;;;;;;3.20;0.93;;;18.60;79.70;;;;;;5009182;28;47414;-80
2022/01/03 08:18:40;;;;;;;2.45;0.82;;;18.60;79.80;;;;;;5009861;28;45298;-81
2022/01/03 08:21:10;;;;;;;3.03;0.90;;;18.60;79.70;;;;;;5010382;28;45319;-81
2022/01/03 08:23:38;;;;;;;3.10;0.77;;;18.60;79.90;;;;;;5006688;28;45218;-81
2022/01/03 08:26:09;;;;;;;2.90;0.82;;;18.60;79.70;;;;;;5014153;28;47020;-81
2022/01/03 08:28:42;;;;;;;1.75;0.68;;;18.60;78.90;;;;;;5013382;28;46465;-81
2022/01/03 08:31:14;;;;;;;2.40;0.70;;;18.60;79.00;;;;;;5014873;28;45230;-82
2022/01/03 08:33:44;;;;;;;2.85;0.95;;;18.60;79.30;;;;;;5014007;28;45453;-81
2022/01/03 08:36:17;;;;;;;3.38;1.02;;;18.60;78.40;;;;;;5012729;28;47367;-81
2022/01/03 08:38:47;;;;;;;3.45;1.00;;;18.60;79.00;;;;;;5015903;28;45142;-81
2022/01/03 08:41:20;;;;;;;2.45;0.60;;;18.60;78.80;;;;;;4991037;28;45166;-82
2022/01/03 08:43:57;;;;;;;1.67;1.05;;;18.60;78.40;;;;;;5027297;28;45250;-82
2022/01/03 08:46:28;;;;;;;2.40;0.68;;;18.60;78.20;;;;;;5036032;28;48434;-82
2022/01/03 08:48:57;;;;;;;2.67;0.75;;;18.60;77.60;;;;;;5015326;28;45797;-81
2022/01/03 08:51:26;;;;;;;3.55;0.93;;;18.60;78.30;;;;;;5013579;28;45507;-82
2022/01/03 08:53:54;;;;;;;2.40;0.77;;;18.60;78.40;;;;;;5014803;28;45278;-82
2022/01/03 08:56:28;;;;;;;3.28;0.75;;;18.70;78.80;;;;;;4995719;28;47420;-82
2022/01/03 08:58:55;;;;;;;2.58;0.73;;;18.60;78.80;;;;;;5014625;28;45241;-81
2022/01/03 09:01:23;;;;;;;2.67;0.80;;;18.60;78.50;;;;;;5018928;28;45254;-81
2022/01/03 09:03:52;;;;;;;1.98;0.80;;;18.70;78.10;;;;;;5015302;28;45165;-81
2022/01/03 09:06:24;;;;;;;2.15;0.70;;;18.70;78.90;;;;;;5021734;28;47893;-81
2022/01/03 09:08:54;;;;;;;2.88;0.75;;;18.60;78.00;;;;;;5014052;28;45403;-81
2022/01/03 09:11:22;;;;;;;1.63;0.73;;;18.70;78.60;;;;;;5020279;28;45247;-81
2022/01/03 09:13:52;;;;;;;2.17;0.70;;;18.40;78.40;;;;;;5022442;28;45173;-81
2022/01/03 09:16:22;;;;;;;2.35;0.70;;;18.70;78.10;;;;;;5014844;28;48872;-81
2022/01/03 09:18:54;;;;;;;3.22;0.93;;;18.70;78.50;;;;;;5021757;28;45497;-81
2022/01/03 09:21:22;;;;;;;1.70;0.70;;;18.70;77.30;;;;;;5015817;28;45355;-81
2022/01/03 09:23:54;;;;;;;3.25;1.05;;;18.60;77.70;;;;;;5005367;28;45453;-80
2022/01/03 09:29:12;;;;;;;2.70;0.80;;;18.60;77.10;;;;;;5008979;28;45314;-81
2022/01/03 09:31:45;;;;;;;2.47;0.80;;;18.60;77.50;;;;;;5009628;28;45241;-81
2022/01/03 09:34:23;;;;;;;10.40;1.58;;;18.60;77.00;;;;;;4997148;28;45551;-78
2022/01/03 09:36:52;;;;;;;4.60;1.17;;;18.70;77.80;;;;;;4989764;28;45397;-78
2022/01/03 09:39:19;;;;;;;4.68;1.20;;;18.60;78.70;;;;;;5009348;28;45494;-78
2022/01/03 09:41:57;;;;;;;4.50;1.27;;;18.50;81.10;;;;;;4991014;28;45431;-77
2022/01/03 09:44:30;;;;;;;5.50;1.35;;;18.50;80.80;;;;;;5005869;28;46394;-77
2022/01/03 09:47:01;;;;;;;3.63;0.82;;;18.50;81.50;;;;;;5009303;28;48258;-77
2022/01/03 09:49:34;;;;;;;4.63;1.08;;;18.50;80.10;;;;;;5004531;28;45440;-77
2022/01/03 09:52:03;;;;;;;4.43;1.33;;;18.50;79.80;;;;;;5006210;28;45311;-77
2022/01/03 09:54:38;;;;;;;4.45;1.10;;;18.50;79.40;;;;;;5004741;28;45305;-77
2022/01/03 09:57:13;;;;;;;5.20;0.82;;;18.50;78.00;;;;;;5009356;28;45220;-78
2022/01/03 09:59:41;;;;;;;5.85;0.98;;;18.50;77.00;;;;;;5008256;28;45316;-77
2022/01/03 10:02:09;;;;;;;4.68;0.90;;;18.60;76.30;;;;;;5008577;28;45342;-77
2022/01/03 10:04:37;;;;;;;4.75;0.98;;;18.60;75.20;;;;;;5010388;28;45277;-78
2022/01/03 10:07:08;;;;;;;7.38;1.25;;;18.60;75.20;;;;;;5009014;28;46313;-77
2022/01/03 10:09:36;;;;;;;3.33;0.80;;;18.60;74.30;;;;;;4999145;28;46189;-77
2022/01/03 10:12:03;;;;;;;1.95;0.90;;;18.70;74.40;;;;;;5005277;28;45182;-78
2022/01/03 10:14:30;;;;;;;6.38;1.05;;;18.60;74.60;;;;;;5002745;28;46362;-78
2022/01/03 10:16:58;;;;;;;5.25;1.15;;;18.60;74.80;;;;;;5002785;28;47349;-78
2022/01/03 10:19:29;;;;;;;2.00;0.85;;;18.60;74.70;;;;;;4983673;28;45475;-77
2022/01/03 10:21:59;;;;;;;3.00;1.08;;;18.60;74.80;;;;;;5008449;28;45814;-78
2022/01/03 10:24:38;;;;;;;2.03;0.85;;;18.60;75.10;;;;;;5009588;28;45234;-77
2022/01/03 10:27:06;;;;;;;2.13;0.88;;;18.60;74.70;;;;;;5007591;28;47175;-78
2022/01/03 10:29:37;;;;;;;3.22;0.95;;;18.60;75.50;;;;;;5008752;28;45669;-77
2022/01/03 10:32:09;;;;;;;2.42;1.05;;;18.60;75.10;;;;;;5003591;28;45393;-77
2022/01/03 10:34:36;;;;;;;5.63;1.10;;;18.70;75.00;;;;;;5004236;28;45429;-77
2022/01/03 10:37:17;;;;;;;4.95;1.17;;;18.70;74.70;;;;;;5007400;28;47641;-77
2022/01/03 10:39:47;;;;;;;2.63;1.05;;;18.70;74.70;;;;;;5003621;28;45294;-77
2022/01/03 10:42:17;;;;;;;2.75;1.13;;;18.60;74.40;;;;;;5007534;28;45268;-78
2022/01/03 10:44:44;;;;;;;4.53;1.33;;;18.70;74.20;;;;;;5008102;28;45544;-77
2022/01/03 10:47:14;;;;;;;3.20;1.10;;;18.70;74.00;;;;;;5008051;28;47439;-77
2022/01/03 10:49:42;;;;;;;3.05;1.00;;;18.70;73.90;;;;;;5009270;28;45532;-77
2022/01/03 10:52:18;;;;;;;2.58;1.00;;;18.70;73.50;;;;;;5011490;28;45230;-77
2022/01/03 10:55:07;;;;;;;4.15;1.08;;;18.70;73.60;;;;;;5008898;28;45571;-77
2022/01/03 10:57:45;;;;;;;2.20;1.00;;;18.70;73.60;;;;;;5011125;28;47706;-78
2022/01/03 11:00:16;;;;;;;2.72;0.95;;;18.70;73.50;;;;;;5010456;28;45626;-77
2022/01/03 11:03:08;;;;;;;5.50;1.33;;;18.70;73.60;;;;;;5019174;28;45274;-78
2022/01/03 11:05:39;;;;;;;4.95;1.15;;;18.70;73.60;;;;;;5010572;28;45234;-78
2022/01/03 11:10:52;;;;;;;2.50;1.10;;;18.70;74.70;;;;;;5009645;28;45246;-77
2022/01/03 11:13:23;;;;;;;3.20;1.10;;;18.70;74.50;;;;;;5009657;28;45423;-78
2022/01/03 11:15:53;;;;;;;2.40;0.95;;;18.70;74.40;;;;;;5005443;28;45445;-78
2022/01/03 11:18:24;;;;;;;3.13;0.90;;;18.70;74.50;;;;;;5001686;28;47261;-78
2022/01/03 11:21:02;;;;;;;2.42;0.70;;;18.70;74.30;;;;;;5006587;28;45234;-78
2022/01/03 11:23:35;;;;;;;5.13;1.25;;;18.70;74.30;;;;;;5008618;28;45288;-80
2022/01/03 11:26:15;;;;;;;5.82;1.00;;;18.70;74.90;;;;;;5012567;28;45322;-80
2022/01/03 11:28:46;;;;;;;2.28;0.85;;;18.70;74.60;;;;;;5011270;28;46518;-80
2022/01/03 11:31:25;;;;;;;3.15;0.90;;;18.70;74.80;;;;;;5003536;28;45230;-80
2022/01/03 11:33:56;;;;;;;5.53;0.98;;;18.70;74.20;;;;;;5011682;28;45391;-80
2022/01/03 11:36:31;;;;;;;2.78;0.93;;;18.70;74.20;;;;;;5013392;28;45396;-80
2022/01/03 11:39:09;;;;;;;3.40;0.98;;;18.70;74.00;;;;;;5012056;28;45361;-80
2022/01/03 11:41:40;;;;;;;2.00;0.70;;;18.70;73.80;;;;;;4999299;28;45203;-78
2022/01/03 11:44:11;;;;;;;4.53;0.88;;;18.80;73.70;;;;;;5008669;28;45738;-79
2022/01/03 11:46:38;;;;;;;2.38;0.90;;;18.80;73.80;;;;;;5007487;28;45907;-78
2022/01/03 11:49:10;;;;;;;3.03;0.90;;;18.80;73.80;;;;;;5013666;28;47987;-79
2022/01/03 11:51:39;;;;;;;3.90;0.80;;;18.90;74.10;;;;;;4993164;28;45252;-79
2022/01/03 11:54:16;;;;;;;2.30;0.90;;;18.80;73.60;;;;;;5008794;28;45254;-80
2022/01/03 11:56:50;;;;;;;2.50;0.85;;;18.80;74.00;;;;;;5005579;28;45396;-79
2022/01/03 12:03:36;;;;;;;3.42;1.10;;;18.80;75.20;;;;;;4996447;28;45747;-80
2022/01/03 12:05:10;;;;;;;4.80;1.10;;;18.70;74.80;;;;;;5012772;28;45364;-81
2022/01/03 12:07:55;;;;;;;2.42;0.90;;;18.60;74.80;;;;;;5015177;28;45415;-81
2022/01/03 12:10:26;;;;;;;3.03;0.95;;;18.60;75.00;;;;;;5011080;28;47576;-80
2022/01/03 12:13:06;;;;;;;3.63;1.13;;;18.60;75.20;;;;;;5018509;28;45692;-79
2022/01/03 12:15:37;;;;;;;3.75;1.13;;;18.70;75.80;;;;;;5007628;28;45317;-80
2022/01/03 12:18:05;;;;;;;3.08;0.70;;;18.50;79.10;;;;;;5008215;28;45289;-79
2022/01/03 12:20:46;;;;;;;4.95;0.98;;;18.50;78.40;;;;;;5008895;28;46414;-78
2022/01/03 12:23:41;;;;;;;2.42;0.75;;;18.50;78.60;;;;;;4998380;28;45919;-79
2022/01/03 12:26:17;;;;;;;3.55;1.13;;;18.50;77.10;;;;;;5008109;28;45250;-79
2022/01/03 12:29:08;;;;;;;4.60;0.90;;;18.60;77.50;;;;;;5009169;28;45391;-79
2022/01/03 12:32:15;;;;;;;3.33;1.10;;;18.60;75.60;;;;;;4991259;28;46775;-79
2022/01/03 12:34:42;;;;;;;3.20;0.95;;;18.60;75.10;;;;;;4999564;28;45518;-79
2022/01/03 12:37:18;;;;;;;2.67;0.90;;;18.60;76.70;;;;;;5011264;28;45310;-79
2022/01/03 12:40:14;;;;;;;4.32;0.98;;;18.60;76.00;;;;;;5006397;28;45640;-78
2022/01/03 12:42:56;;;;;;;3.00;1.05;;;18.60;76.40;;;;;;5001055;28;47634;-78
2022/01/03 12:46:01;;;;;;;1.90;0.80;;;18.60;75.80;;;;;;5010266;28;45792;-78
2022/01/03 12:48:35;;;;;;;3.40;0.90;;;18.60;75.20;;;;;;4964289;28;45421;-78
2022/01/03 12:51:12;;;;;;;3.05;0.98;;;18.50;74.90;;;;;;4999155;28;45303;-78
2022/01/03 12:53:44;;;;;;;3.50;0.80;;;18.50;75.00;;;;;;5015867;28;46350;-78
2022/01/03 12:56:15;;;;;;;2.67;0.95;;;18.50;75.20;;;;;;5027722;28;45242;-79
2022/01/03 12:58:52;;;;;;;4.22;0.98;;;18.50;75.30;;;;;;5021569;28;45439;-78
2022/01/03 13:01:32;;;;;;;2.13;0.75;;;18.50;75.30;;;;;;5005908;28;45146;-79
2022/01/03 13:04:07;;;;;;;1.52;0.60;;;18.50;75.20;;;;;;5011036;28;45300;-79
2022/01/03 13:06:42;;;;;;;3.67;0.82;;;18.50;75.40;;;;;;4993303;28;45347;-79
2022/01/03 13:09:14;;;;;;;3.92;0.90;;;18.50;75.40;;;;;;5011381;28;45369;-79
2022/01/03 13:11:48;;;;;;;1.67;0.52;;;18.50;75.90;;;;;;4994602;28;45413;-79
2022/01/03 13:14:20;;;;;;;3.13;0.80;;;18.50;75.70;;;;;;5011926;28;47386;-79
2022/01/03 13:16:51;;;;;;;1.45;0.65;;;18.50;75.90;;;;;;5009955;28;45349;-79
2022/01/03 13:19:21;;;;;;;2.60;0.80;;;18.50;75.80;;;;;;4993852;28;45301;-79
2022/01/03 13:21:51;;;;;;;2.22;0.82;;;18.50;76.00;;;;;;5011637;28;45472;-79
2022/01/03 13:24:22;;;;;;;2.38;0.70;;;18.50;76.90;;;;;;5014002;28;46796;-79
2022/01/03 13:27:03;;;;;;;0.73;0.40;;;18.50;76.50;;;;;;5010101;28;45345;-79
2022/01/03 13:29:45;;;;;;;2.58;0.80;;;18.50;77.00;;;;;;5011527;28;45328;-79